Weather at Kuini Lavenia Airport

Public forecast

Using degrees Celsius for public forecast. Weather courtesy of forecast.io.

Current aviation weather report (METAR) for Kuini Lavenia Airport

Report is more than 6 hours old.

Retrieved 2021/07/08 00:00 UTC (1 year ago):

NFTP 080000Z 14005KT 9999 SCT017 BKN035 BKN100 28/25 Q1012

Closest aviation forecast (TAF) to Kuini Lavenia Airport

Forecast is more than 12 hours old.

Closest forecast is Pago Pago International Airport, 204.1 nm (378.0 km) ENE. Retrieved 2022/09/17 18:51 UTC (12 days ago):

TAF NSTU 171728Z 1718/1818 12014KT P6SM VCSH SCT020 BKN040 BKN090 FM172100 12015KT P6SM SCT020 SCT040 BKN090